Time;durP1;ratioP1;P1;durP2;ratioP2;P2;SDS_P1;SDS_P2;PMS_P1;PMS_P2;Temp;Humidity;BMP_temperature;BMP_pressure;BME280_temperature;BME280_humidity;BME280_pressure;Samples;Min_cycle;Max_cycle;Signal;HPM_P1;HPM_P2
2021/08/29 00:01:19;;;;;;;4.65;2.78;;;;;;;;;;6140128;23;20173;-87
2021/08/29 00:04:24;;;;;;;6.10;3.28;;;;;;;;;;6138724;23;20169;-87
2021/08/29 00:07:31;;;;;;;5.13;3.38;;;;;;;;;;6139893;23;20164;-88
2021/08/29 00:10:36;;;;;;;5.45;3.25;;;;;;;;;;6140272;23;20629;-88
2021/08/29 00:13:41;;;;;;;5.57;3.35;;;;;;;;;;6136756;23;20170;-89
2021/08/29 00:16:46;;;;;;;5.85;3.17;;;;;;;;;;6138354;23;20149;-88
2021/08/29 00:19:51;;;;;;;6.38;3.30;;;;;;;;;;6139651;23;20258;-88
2021/08/29 00:22:57;;;;;;;5.00;3.05;;;;;;;;;;6139075;23;20204;-87
2021/08/29 00:26:02;;;;;;;5.55;3.50;;;;;;;;;;6138902;23;20169;-88
2021/08/29 00:29:09;;;;;;;6.05;3.85;;;;;;;;;;6138228;23;20252;-89
2021/08/29 00:32:14;;;;;;;8.43;3.80;;;;;;;;;;6139079;23;20157;-87
2021/08/29 00:35:19;;;;;;;6.45;4.13;;;;;;;;;;6138363;23;20182;-87
2021/08/29 00:38:26;;;;;;;5.35;3.60;;;;;;;;;;6138631;23;20165;-87
2021/08/29 00:41:32;;;;;;;6.90;4.07;;;;;;;;;;6141650;23;20157;-89
2021/08/29 00:44:38;;;;;;;8.38;4.28;;;;;;;;;;6150514;23;20168;-89
2021/08/29 00:47:43;;;;;;;7.50;3.85;;;;;;;;;;6149616;23;20173;-89
2021/08/29 00:50:49;;;;;;;5.78;4.00;;;;;;;;;;6150190;23;20233;-88
2021/08/29 00:53:57;;;;;;;5.45;3.90;;;;;;;;;;6150147;23;20197;-88
2021/08/29 00:57:08;;;;;;;8.57;4.20;;;;;;;;;;6151153;23;20172;-88
2021/08/29 01:00:17;;;;;;;6.53;3.88;;;;;;;;;;6149170;23;20164;-88
2021/08/29 01:03:30;;;;;;;7.53;3.75;;;;;;;;;;6150856;23;20196;-88
2021/08/29 01:06:40;;;;;;;6.72;3.83;;;;;;;;;;6151279;23;20176;-87
2021/08/29 01:09:59;;;;;;;6.47;3.88;;;;;;;;;;6149640;23;20173;-89
2021/08/29 01:13:20;;;;;;;5.47;3.70;;;;;;;;;;6148987;23;20168;-89
2021/08/29 01:16:25;;;;;;;4.82;3.45;;;;;;;;;;6151035;23;20705;-88
2021/08/29 01:19:40;;;;;;;6.53;3.60;;;;;;;;;;6150934;23;20170;-89
2021/08/29 01:22:47;;;;;;;5.85;3.60;;;;;;;;;;6150030;23;20240;-87
2021/08/29 01:25:56;;;;;;;4.72;3.45;;;;;;;;;;6148708;23;20168;-89
2021/08/29 01:29:04;;;;;;;6.10;3.58;;;;;;;;;;6150076;23;20177;-89
2021/08/29 01:32:11;;;;;;;7.88;3.88;;;;;;;;;;6149074;23;20164;-86
2021/08/29 01:35:24;;;;;;;6.05;3.72;;;;;;;;;;6149844;23;20221;-88
2021/08/29 01:38:38;;;;;;;5.57;3.80;;;;;;;;;;6148196;23;20164;-89
2021/08/29 01:41:45;;;;;;;6.97;3.55;;;;;;;;;;6149174;23;20184;-88
2021/08/29 01:44:52;;;;;;;11.57;3.97;;;;;;;;;;6149952;23;20189;-89
2021/08/29 01:47:58;;;;;;;5.10;3.50;;;;;;;;;;6166927;23;20249;-88
2021/08/29 01:51:08;;;;;;;5.63;3.45;;;;;;;;;;6148950;23;20172;-89
2021/08/29 01:54:17;;;;;;;6.57;3.60;;;;;;;;;;6148971;23;20168;-90
2021/08/29 01:57:37;;;;;;;5.13;3.30;;;;;;;;;;6147919;23;20218;-88
2021/08/29 02:00:52;;;;;;;6.63;3.30;;;;;;;;;;6149116;23;20153;-89
2021/08/29 02:04:00;;;;;;;7.20;3.58;;;;;;;;;;6148526;23;20279;-89
2021/08/29 02:07:09;;;;;;;5.68;2.90;;;;;;;;;;6166591;23;20245;-89
2021/08/29 02:10:15;;;;;;;4.72;3.20;;;;;;;;;;6146969;23;20216;-89
2021/08/29 02:13:22;;;;;;;4.28;2.90;;;;;;;;;;6148532;23;20177;-88
2021/08/29 02:16:29;;;;;;;6.80;3.00;;;;;;;;;;6148578;23;20725;-89
2021/08/29 02:19:36;;;;;;;4.70;2.83;;;;;;;;;;6147704;23;20168;-89
2021/08/29 02:22:44;;;;;;;4.72;2.90;;;;;;;;;;6148431;23;20192;-88
2021/08/29 02:25:50;;;;;;;5.07;2.80;;;;;;;;;;6147184;23;20172;-88
2021/08/29 02:28:56;;;;;;;3.63;2.60;;;;;;;;;;6147383;23;20172;-89
2021/08/29 02:32:03;;;;;;;3.70;2.67;;;;;;;;;;6147514;23;20249;-89
2021/08/29 02:35:09;;;;;;;3.72;2.42;;;;;;;;;;6149125;23;20169;-89
2021/08/29 02:38:22;;;;;;;3.22;2.30;;;;;;;;;;6147884;23;20207;-88
2021/08/29 02:41:27;;;;;;;3.58;2.20;;;;;;;;;;6147698;23;20152;-89
2021/08/29 02:44:35;;;;;;;4.97;2.38;;;;;;;;;;6149151;23;20184;-89
2021/08/29 02:47:42;;;;;;;5.32;2.20;;;;;;;;;;6148984;23;20557;-89
2021/08/29 02:50:48;;;;;;;5.95;2.45;;;;;;;;;;6150117;23;20244;-88
2021/08/29 02:53:57;;;;;;;2.42;2.13;;;;;;;;;;6148160;23;20628;-90
2021/08/29 02:57:02;;;;;;;3.05;2.00;;;;;;;;;;6147651;23;20152;-89
2021/08/29 03:00:10;;;;;;;3.67;2.30;;;;;;;;;;6148916;23;20156;-89
2021/08/29 03:03:17;;;;;;;2.05;1.70;;;;;;;;;;6148622;23;20312;-89
2021/08/29 03:06:25;;;;;;;3.65;1.88;;;;;;;;;;6149189;23;20159;-89
2021/08/29 03:09:33;;;;;;;3.60;1.80;;;;;;;;;;6147734;23;20176;-89
2021/08/29 03:12:39;;;;;;;3.10;1.73;;;;;;;;;;6148072;23;20157;-89
2021/08/29 03:16:13;;;;;;;2.20;1.73;;;;;;;;;;6165935;23;20169;-89
2021/08/29 03:19:28;;;;;;;5.78;1.60;;;;;;;;;;6150248;23;20157;-90
2021/08/29 03:22:49;;;;;;;2.08;1.70;;;;;;;;;;6149760;23;20156;-88
2021/08/29 03:25:55;;;;;;;4.82;2.35;;;;;;;;;;6148384;23;20176;-90
2021/08/29 03:28:59;;;;;;;6.97;3.90;;;;;;;;;;6149349;23;20172;-89
2021/08/29 03:32:05;;;;;;;2.35;1.70;;;;;;;;;;6149268;23;20185;-89
2021/08/29 03:35:13;;;;;;;3.42;1.75;;;;;;;;;;6150305;23;20247;-89
2021/08/29 03:38:25;;;;;;;3.42;1.70;;;;;;;;;;6149813;23;20164;-88
2021/08/29 03:41:31;;;;;;;4.38;1.90;;;;;;;;;;6147886;23;20176;-88
2021/08/29 03:44:39;;;;;;;4.13;1.73;;;;;;;;;;6148861;23;20528;-89
2021/08/29 03:47:45;;;;;;;3.25;1.98;;;;;;;;;;6149148;23;20173;-88
2021/08/29 03:50:52;;;;;;;2.42;1.80;;;;;;;;;;6149066;23;20172;-89
2021/08/29 03:53:58;;;;;;;3.33;1.83;;;;;;;;;;6149331;23;20164;-90
2021/08/29 03:57:03;;;;;;;3.20;2.40;;;;;;;;;;6148246;23;20177;-88
2021/08/29 04:00:09;;;;;;;3.97;2.17;;;;;;;;;;6147797;23;20289;-88
2021/08/29 04:03:37;;;;;;;5.57;2.30;;;;;;;;;;6148754;23;20195;-88
2021/08/29 04:06:51;;;;;;;2.50;2.08;;;;;;;;;;6149749;23;20152;-88
2021/08/29 04:09:58;;;;;;;4.05;2.50;;;;;;;;;;6148899;23;20169;-89
2021/08/29 04:13:03;;;;;;;3.38;2.17;;;;;;;;;;6149336;23;20176;-88
2021/08/29 04:16:44;;;;;;;3.65;1.80;;;;;;;;;;6052787;23;20659;-89
2021/08/29 04:20:13;;;;;;;6.80;2.20;;;;;;;;;;6167040;23;20168;-90
2021/08/29 04:23:21;;;;;;;3.47;1.70;;;;;;;;;;6149609;23;20192;-89
2021/08/29 04:26:26;;;;;;;2.90;2.05;;;;;;;;;;6149264;23;20169;-89
2021/08/29 04:29:31;;;;;;;3.60;2.30;;;;;;;;;;6150598;23;20335;-89
2021/08/29 04:32:37;;;;;;;3.17;2.17;;;;;;;;;;6150205;23;20239;-89
2021/08/29 04:35:45;;;;;;;3.03;2.13;;;;;;;;;;6150684;23;20620;-89
2021/08/29 04:38:51;;;;;;;3.00;2.20;;;;;;;;;;6149257;23;20173;-88
2021/08/29 04:41:57;;;;;;;3.30;2.38;;;;;;;;;;6148925;23;20196;-89
2021/08/29 04:45:02;;;;;;;2.50;2.10;;;;;;;;;;6150275;23;20199;-89
2021/08/29 04:48:07;;;;;;;2.75;2.20;;;;;;;;;;6149383;23;20169;-88
2021/08/29 04:51:12;;;;;;;2.42;1.80;;;;;;;;;;6150385;23;20183;-88
2021/08/29 04:54:19;;;;;;;3.17;2.30;;;;;;;;;;6148913;23;20184;-87
2021/08/29 04:57:23;;;;;;;2.55;2.10;;;;;;;;;;6148343;23;20180;-87
2021/08/29 05:00:29;;;;;;;4.57;2.60;;;;;;;;;;6149912;23;20168;-89
2021/08/29 05:03:38;;;;;;;3.15;2.42;;;;;;;;;;6149378;23;20195;-89
2021/08/29 05:06:44;;;;;;;5.15;2.38;;;;;;;;;;6150139;23;20260;-89
2021/08/29 05:09:53;;;;;;;3.70;2.25;;;;;;;;;;6150082;23;20937;-90
2021/08/29 05:12:58;;;;;;;3.42;2.35;;;;;;;;;;6149725;23;20153;-89
2021/08/29 05:16:03;;;;;;;3.00;2.30;;;;;;;;;;6149063;23;20168;-89
2021/08/29 05:19:09;;;;;;;4.45;2.45;;;;;;;;;;6149665;23;20152;-88
2021/08/29 05:22:15;;;;;;;5.35;2.53;;;;;;;;;;6150404;23;20168;-88
2021/08/29 05:25:41;;;;;;;3.70;2.45;;;;;;;;;;6139310;23;20184;-89
2021/08/29 05:28:46;;;;;;;4.32;2.70;;;;;;;;;;6150948;23;20634;-90
2021/08/29 05:31:52;;;;;;;3.58;2.42;;;;;;;;;;6148274;23;20168;-88
2021/08/29 05:35:05;;;;;;;3.30;2.42;;;;;;;;;;6149603;23;20289;-88
2021/08/29 05:38:10;;;;;;;2.75;2.30;;;;;;;;;;6150035;23;20500;-89
2021/08/29 05:41:36;;;;;;;4.07;2.30;;;;;;;;;;6166403;23;20212;-90
2021/08/29 05:45:10;;;;;;;5.30;2.50;;;;;;;;;;6148932;23;20247;-88
2021/08/29 05:48:15;;;;;;;3.47;2.63;;;;;;;;;;6147924;23;20184;-88
2021/08/29 05:51:20;;;;;;;3.65;2.65;;;;;;;;;;6147987;23;20234;-89
2021/08/29 05:54:25;;;;;;;3.47;2.67;;;;;;;;;;6148913;23;20168;-89
2021/08/29 05:57:32;;;;;;;5.68;2.90;;;;;;;;;;6147237;23;20181;-88
2021/08/29 06:00:38;;;;;;;4.13;2.60;;;;;;;;;;6147434;23;20172;-86
2021/08/29 06:03:43;;;;;;;4.93;2.90;;;;;;;;;;6150063;23;20248;-87
2021/08/29 06:06:58;;;;;;;2.92;2.30;;;;;;;;;;6150791;23;20176;-88
2021/08/29 06:10:04;;;;;;;5.18;3.50;;;;;;;;;;6150791;23;20184;-89
2021/08/29 06:13:11;;;;;;;6.38;4.25;;;;;;;;;;6149611;23;20236;-88
2021/08/29 06:16:18;;;;;;;10.32;4.47;;;;;;;;;;6150407;23;20152;-89
2021/08/29 06:19:22;;;;;;;5.10;3.90;;;;;;;;;;6151087;23;20167;-89
2021/08/29 06:22:28;;;;;;;4.72;3.67;;;;;;;;;;6152764;23;20612;-88
2021/08/29 06:25:53;;;;;;;4.63;3.67;;;;;;;;;;6168903;23;20204;-88
2021/08/29 06:29:19;;;;;;;5.20;3.80;;;;;;;;;;6166943;23;20161;-89
2021/08/29 06:32:43;;;;;;;7.00;4.50;;;;;;;;;;6169648;23;20180;-88
2021/08/29 06:35:50;;;;;;;4.70;4.03;;;;;;;;;;6152507;23;20252;-89
2021/08/29 06:38:58;;;;;;;5.07;4.10;;;;;;;;;;6153785;23;20173;-89
2021/08/29 06:42:02;;;;;;;7.75;4.10;;;;;;;;;;6153978;23;20196;-89
2021/08/29 06:45:11;;;;;;;5.00;3.53;;;;;;;;;;6155789;23;20250;-89
2021/08/29 06:48:35;;;;;;;6.13;4.38;;;;;;;;;;6173367;23;20202;-91
2021/08/29 06:51:58;;;;;;;7.43;4.25;;;;;;;;;;6174102;23;20200;-89
2021/08/29 06:55:32;;;;;;;6.53;4.40;;;;;;;;;;6099221;23;20192;-86
2021/08/29 06:58:56;;;;;;;6.63;4.50;;;;;;;;;;6173538;23;20238;-90
2021/08/29 07:02:03;;;;;;;7.07;5.03;;;;;;;;;;6157261;23;20160;-89
2021/08/29 07:05:10;;;;;;;7.85;4.88;;;;;;;;;;6154789;23;20288;-89
2021/08/29 07:08:23;;;;;;;7.57;4.95;;;;;;;;;;6156145;23;20172;-88
2021/08/29 07:11:28;;;;;;;7.57;5.10;;;;;;;;;;6156387;23;20279;-87
2021/08/29 07:14:52;;;;;;;8.35;5.25;;;;;;;;;;6172847;23;20671;-89
2021/08/29 07:17:59;;;;;;;8.15;5.35;;;;;;;;;;6151896;23;20163;-89
2021/08/29 07:21:41;;;;;;;8.00;4.85;;;;;;;;;;6167149;23;20229;-88
2021/08/29 07:25:10;;;;;;;7.03;4.93;;;;;;;;;;6169402;23;20196;-89
2021/08/29 07:28:34;;;;;;;7.25;5.07;;;;;;;;;;6169418;23;20172;-90
2021/08/29 07:31:58;;;;;;;8.18;5.25;;;;;;;;;;6168777;23;20161;-89
2021/08/29 07:35:07;;;;;;;9.88;5.57;;;;;;;;;;6157495;23;20691;-88
2021/08/29 07:38:12;;;;;;;8.88;5.40;;;;;;;;;;6170702;23;20240;-88
2021/08/29 07:41:18;;;;;;;7.25;4.78;;;;;;;;;;6153730;23;20169;-88
2021/08/29 07:44:23;;;;;;;7.40;5.55;;;;;;;;;;6153440;23;20192;-90
2021/08/29 07:47:28;;;;;;;9.52;6.15;;;;;;;;;;6150312;23;20246;-90
2021/08/29 07:50:34;;;;;;;9.68;5.90;;;;;;;;;;6149390;23;20247;-90
2021/08/29 22:01:49;;;;;;;6.15;4.00;;;;;;;;;;6168043;23;20220;-88
2021/08/29 22:04:55;;;;;;;4.95;3.72;;;;;;;;;;6180166;23;20184;-89
2021/08/29 22:08:00;;;;;;;4.13;3.10;;;;;;;;;;6179252;23;20203;-89
2021/08/29 22:11:08;;;;;;;3.97;3.20;;;;;;;;;;6189848;23;20167;-91
2021/08/29 22:14:13;;;;;;;6.10;3.55;;;;;;;;;;6182309;23;20507;-91
2021/08/29 22:17:20;;;;;;;6.00;3.13;;;;;;;;;;6177068;23;20280;-89
2021/08/29 22:20:25;;;;;;;4.88;3.30;;;;;;;;;;6178453;23;20159;-90
2021/08/29 22:23:29;;;;;;;7.10;3.55;;;;;;;;;;6179083;23;20247;-88
2021/08/29 22:26:34;;;;;;;5.65;3.00;;;;;;;;;;6195628;23;20215;-89
2021/08/29 22:29:39;;;;;;;4.13;3.28;;;;;;;;;;6179122;23;20172;-91
2021/08/29 22:32:47;;;;;;;6.55;3.60;;;;;;;;;;6179393;23;20164;-90
2021/08/29 22:35:52;;;;;;;7.50;3.65;;;;;;;;;;6177562;23;20187;-89
2021/08/29 22:38:56;;;;;;;14.48;6.90;;;;;;;;;;6178214;23;20163;-90
2021/08/29 22:42:01;;;;;;;8.32;4.88;;;;;;;;;;6179306;23;20279;-91
2021/08/29 22:45:07;;;;;;;15.48;8.48;;;;;;;;;;6178347;23;20195;-89
2021/08/29 22:48:14;;;;;;;6.35;3.40;;;;;;;;;;6177548;23;20246;-89
2021/08/29 22:51:19;;;;;;;3.92;3.00;;;;;;;;;;6179006;23;20180;-88
2021/08/29 22:54:24;;;;;;;4.53;3.35;;;;;;;;;;6177714;23;20182;-90
2021/08/29 22:57:28;;;;;;;4.88;3.50;;;;;;;;;;6178319;23;20155;-88
2021/08/29 23:00:33;;;;;;;6.72;3.70;;;;;;;;;;6178595;23;20199;-89
2021/08/29 23:03:39;;;;;;;4.93;3.05;;;;;;;;;;6182181;23;20168;-89
2021/08/29 23:06:45;;;;;;;6.93;3.90;;;;;;;;;;6177805;23;20195;-88
2021/08/29 23:09:50;;;;;;;5.85;3.63;;;;;;;;;;6178125;23;20151;-90
2021/08/29 23:12:55;;;;;;;6.85;3.38;;;;;;;;;;6178662;23;20172;-87
2021/08/29 23:16:00;;;;;;;11.02;4.28;;;;;;;;;;6180692;23;20266;-88
2021/08/29 23:19:07;;;;;;;9.25;3.78;;;;;;;;;;6180638;23;20493;-89
2021/08/29 23:22:11;;;;;;;11.02;4.40;;;;;;;;;;6179337;23;20238;-91
2021/08/29 23:25:16;;;;;;;6.07;4.00;;;;;;;;;;6179622;23;20271;-91
2021/08/29 23:28:21;;;;;;;8.10;4.55;;;;;;;;;;6178975;23;20215;-89
2021/08/29 23:31:26;;;;;;;8.18;4.70;;;;;;;;;;6178388;23;20206;-88
2021/08/29 23:34:33;;;;;;;12.00;6.78;;;;;;;;;;6180261;23;20171;-89
2021/08/29 23:37:38;;;;;;;14.73;6.28;;;;;;;;;;6182053;23;20175;-89
2021/08/29 23:40:43;;;;;;;9.73;6.47;;;;;;;;;;6193888;23;20171;-90
2021/08/29 23:43:49;;;;;;;13.38;7.40;;;;;;;;;;6193111;23;20172;-90
2021/08/29 23:46:57;;;;;;;10.32;6.57;;;;;;;;;;6193610;23;20183;-89
2021/08/29 23:50:04;;;;;;;10.15;6.15;;;;;;;;;;6192529;23;20167;-90
2021/08/29 23:53:09;;;;;;;12.25;7.00;;;;;;;;;;6193973;23;20678;-91
2021/08/29 23:56:15;;;;;;;9.88;6.10;;;;;;;;;;6186366;23;20171;-90
2021/08/29 23:59:20;;;;;;;10.75;6.47;;;;;;;;;;6180721;23;20172;-90
